Terminal Aerodrome Forecast
Issued by NWS

Home | Current Version | Previous Version | Text Only | Print | Product List | Glossary On
Versions: 1 2 3 4 5 6 7 8 9 10 11 12 13 14 15 16 17 18
000
FTUS44 KLZK 231950 AAA
TAFPBF
TAF AMD
KPBF 231950Z 2320/2418 24008G15KT P6SM FEW250
     FM240400 30009KT P6SM FEW250
     FM241300 30018G25KT P6SM SKC=

USA.gov is the U.S. government's official web portal to all federal, state and local government web resources and services.